Whitewater, Colorado
Current Conditions -  °F | °C
As of 3:53 PM on Saturday 20 Dec 2014 (Local Time) from KGJT Reporting Station
Overcast Overcast  
Wind Chill: 33°   Ceiling: 11000
Heat Index: 37°   Visibility: 10mi
Dew Point: 28°   Wind: 5mph
Humidity: 70%   Direction: 320°NW
Pressure: 30.12"   Gusts: NA
Location:  38.99°N, 108.45°W
Report Text: KGJT 202253Z 32004KT 10SM SCT090 OVC110 03/M02 A3012 RMK AO2 SLP211 T00281022 $
Loading
Personal Weather Stations






























Interactive Weather Map New forecast layout! Learn more

10-Day Weather Forecast

Advertisements
Track Severe Weather on mobile